Bookmark and Share
Track history (hours):
 

Stephen M. White

More information available from US FCC via Universal Licensing System and Coast Guard Vessel Documentation Center.

Last reported at 2014-Apr-24 13:33 UTC. Time now 2014-Apr-24 14:07 UTC.
Position N 33°43' W 118°16'.

Length 20 m.

Type: Pilot. MMSI: 367049470.

NotesDate/timePositionNaut miles runAvg speedWind from/ knotsBaromVisibWave heightAir tempDewpointWater temp
2014-Apr-24 13:33N 33°43' W 118°16'0 0.0
2014-Apr-24 11:24N 33°43' W 118°16'0 0.0
2014-Apr-24 10:28N 33°43' W 118°16'0 0.0
2014-Apr-24 09:34N 33°43' W 118°16'0 0.0
2014-Apr-24 08:33N 33°43' W 118°16'0 0.0
2014-Apr-24 07:34N 33°43' W 118°16'0 0.0
2014-Apr-24 06:34N 33°43' W 118°16'0 0.0
2014-Apr-24 05:33N 33°43' W 118°16'0 0.0
2014-Apr-24 04:34N 33°43' W 118°16'0 0.0
2014-Apr-24 03:33N 33°43' W 118°16'0 0.0
2014-Apr-24 02:34N 33°43' W 118°16'0 0.0
2014-Apr-24 01:26N 33°43' W 118°16'2 1.9
2014-Apr-24 00:33N 33°42' W 118°15'2 1.7
2014-Apr-23 23:33N 33°43' W 118°16'0 0.0
2014-Apr-23 22:34N 33°43' W 118°16'0 0.0
2014-Apr-22 14:09N 33°43' W 118°16'0 0.0
2014-Apr-22 12:17N 33°43' W 118°16'4 4.7
2014-Apr-22 11:21N 33°40' W 118°13'4 5.3
2014-Apr-22 10:33N 33°43' W 118°16'0 0.2
2014-Apr-22 09:30N 33°43' W 118°16'0 0.0
2014-Apr-22 08:08N 33°43' W 118°16'0 0.0
2014-Apr-22 07:33N 33°43' W 118°16'0 0.0
2014-Apr-22 06:30N 33°43' W 118°16'0 0.0
2014-Apr-22 05:25N 33°43' W 118°16'0 0.0
2014-Apr-22 04:30N 33°43' W 118°16'0 0.0
2014-Apr-22 03:33N 33°43' W 118°16'0 0.0
2014-Apr-22 02:33N 33°43' W 118°16'0 0.4
2014-Apr-22 01:33N 33°43' W 118°16'0 0.4
2014-Apr-22 00:33N 33°43' W 118°16'3 3.2
2014-Apr-21 23:33N 33°40' W 118°15'3 3.2
2014-Apr-21 22:34N 33°43' W 118°16'0 0.0
2014-Apr-21 21:34N 33°43' W 118°16'0 0.0
2014-Apr-21 20:33N 33°43' W 118°16'0 0.0
2014-Apr-21 19:34N 33°43' W 118°16'0 0.0
2014-Apr-21 18:22N 33°43' W 118°16'0 0.0
2014-Apr-21 17:33N 33°43' W 118°16'0 0.0
2014-Apr-21 16:33N 33°43' W 118°16'0 0.0
2014-Apr-21 15:08N 33°43' W 118°16'0 0.0
2014-Apr-21 14:15N 33°43' W 118°16'0 0.0
2014-Apr-21 13:33N 33°43' W 118°16'0 0.0
2014-Apr-21 12:33N 33°43' W 118°16'0 0.0
2014-Apr-21 11:33N 33°43' W 118°16'0 0.0
2014-Apr-21 10:31N 33°43' W 118°16'0 0.0
2014-Apr-21 09:33N 33°43' W 118°16'0 0.0
2014-Apr-21 08:31N 33°43' W 118°16'0 0.0
2014-Apr-21 07:07N 33°43' W 118°16'0 0.0
2014-Apr-21 06:27N 33°43' W 118°16'0 0.0
2014-Apr-21 05:33N 33°43' W 118°16'0 0.0
2014-Apr-21 04:34N 33°43' W 118°16'0 0.0
2014-Apr-21 03:33N 33°43' W 118°16'0 0.0
2014-Apr-21 02:33N 33°43' W 118°16'0 0.0
2014-Apr-21 01:33N 33°43' W 118°16'0 0.0
2014-Apr-21 00:33N 33°43' W 118°16'0 0.0
2014-Apr-20 23:33N 33°43' W 118°16'0 0.0
2014-Apr-20 22:33N 33°43' W 118°16'0 0.0
2014-Apr-20 21:33N 33°43' W 118°16'0 0.0
2014-Apr-20 20:33N 33°43' W 118°16'0 0.0
2014-Apr-20 19:18N 33°43' W 118°16'0 0.0
2014-Apr-20 00:09N 33°43' W 118°16'0 0.0
2014-Apr-19 23:14N 33°43' W 118°16'0 0.0
2014-Apr-19 22:32N 33°43' W 118°16'0 0.0
2014-Apr-17 22:05N 33°43' W 118°16'0 0.0
2014-Apr-17 21:33N 33°43' W 118°16'0 0.0
2014-Apr-17 20:18N 33°43' W 118°16'0 0.0
2014-Apr-17 19:09N 33°43' W 118°16'0 0.0
2014-Apr-17 18:20N 33°43' W 118°16'0 0.0
2014-Apr-17 17:25N 33°43' W 118°16'0 0.0
2014-Apr-17 16:33N 33°43' W 118°16'0 0.0
2014-Apr-17 15:20N 33°43' W 118°16'0 0.0
2014-Apr-17 14:31N 33°43' W 118°16'0 0.0
2014-Apr-17 13:33N 33°43' W 118°16'3 3.2
2014-Apr-17 12:33N 33°40' W 118°15'3 2.7
2014-Apr-17 11:21N 33°43' W 118°16'0 0.0
2014-Apr-17 10:24N 33°43' W 118°16'0 0.0
2014-Apr-17 05:33N 33°43' W 118°16'0 0.0
2014-Apr-17 04:33N 33°43' W 118°16'0 0.0
2014-Apr-17 03:33N 33°43' W 118°16'0 0.0
2014-Apr-17 02:33N 33°43' W 118°16'1 0.9
2014-Apr-17 01:33N 33°43' W 118°15'1 0.9
2014-Apr-17 00:34N 33°43' W 118°16'0 0.0
2014-Apr-16 23:29N 33°43' W 118°16'0 0.0
2014-Apr-16 22:34N 33°43' W 118°16'0 0.0
2014-Apr-16 19:26N 33°43' W 118°16'0 0.0
2014-Apr-16 17:33N 33°43' W 118°16'0 0.0
2014-Apr-16 16:17N 33°43' W 118°16'0 0.0
2014-Apr-16 15:32N 33°43' W 118°16'0 0.0
2014-Apr-16 14:26N 33°43' W 118°16'0 0.0
2014-Apr-16 13:27N 33°43' W 118°16'3 2.3
2014-Apr-16 12:16N 33°41' W 118°14'3 2.4
2014-Apr-16 11:06N 33°43' W 118°16'0 0.0
2014-Apr-16 10:32N 33°43' W 118°16'0 0.0
2014-Apr-16 09:28N 33°43' W 118°16'0 0.0
2014-Apr-16 08:33N 33°43' W 118°16'0 0.0
2014-Apr-16 07:33N 33°43' W 118°16'0 0.0
2014-Apr-16 06:32N 33°43' W 118°16'0 0.0
2014-Apr-16 05:33N 33°43' W 118°16'0 0.0
2014-Apr-16 04:33N 33°43' W 118°16'0 0.0
2014-Apr-16 03:33N 33°43' W 118°16'0 0.0
2014-Apr-16 02:33N 33°43' W 118°16'0 0.0
2014-Apr-16 01:33N 33°43' W 118°16'0 0.0
2014-Apr-16 00:33N 33°43' W 118°16'0 0.0
2014-Apr-15 23:33N 33°43' W 118°16'0 0.0
2014-Apr-15 22:33N 33°43' W 118°16'1 0.5
2014-Apr-15 21:33N 33°43' W 118°16'1 0.5
2014-Apr-15 20:33N 33°43' W 118°16'0 0.0
2014-Apr-15 19:33N 33°43' W 118°16'0 0.0
2014-Apr-15 18:33N 33°43' W 118°16'0 0.0
2014-Apr-15 17:28N 33°43' W 118°16'0 0.0
2014-Apr-15 16:33N 33°43' W 118°16'0 0.0
2014-Apr-15 15:33N 33°43' W 118°16'0 0.0
2014-Apr-15 14:33N 33°43' W 118°16'0 0.0
2014-Apr-15 12:33N 33°43' W 118°16'0 0.0
2014-Apr-15 10:34N 33°43' W 118°16'0 0.0
2014-Apr-15 09:34N 33°43' W 118°16'0 0.0
2014-Apr-15 08:34N 33°43' W 118°16'0 0.0
2014-Apr-15 07:34N 33°43' W 118°16'0 0.0
2014-Apr-15 06:34N 33°43' W 118°16'0 0.0
2014-Apr-15 05:34N 33°43' W 118°16'0 0.0
2014-Apr-15 03:34N 33°43' W 118°16'0 0.0
2014-Apr-15 02:33N 33°43' W 118°16'0 0.0
2014-Apr-15 01:34N 33°43' W 118°16'0 0.0
2014-Apr-15 00:34N 33°43' W 118°16'0 0.0
2014-Apr-14 23:34N 33°43' W 118°16'0 0.0
2014-Apr-14 22:34N 33°43' W 118°16'0 0.0
2014-Apr-14 21:34N 33°43' W 118°16'0 0.0
2014-Apr-14 20:34N 33°43' W 118°16'0 0.0
2014-Apr-14 19:34N 33°43' W 118°16'0 0.0
2014-Apr-14 18:34N 33°43' W 118°16'0 0.0
2014-Apr-14 15:33N 33°43' W 118°16'  

Dump ship's entire track history

sailing weather and tide predictions

Stephen M. White — WCU6542 — position and weather